Siros, Greece
Current Conditions -  °F | °C
As of 3:50 PM on Saturday 20 Dec 2014 (Local Time) from LGMK Reporting Station
Scattered Clouds Scattered Clouds  
Wind Chill: 61°   Ceiling: Unl
Heat Index: 61°   Visibility: 6mi
Dew Point: 50°   Wind: 6mph
Humidity: 68%   Direction: 220°SW
Pressure: 30.12"   Gusts: NA
Location:  37.45°N, 24.93°E
Report Text: LGMK 201250Z 22005KT 9999 SCT020 16/10 Q1020
Loading
Personal Weather Stations






























Interactive Weather Map New forecast layout! Learn more

10-Day Weather Forecast

Advertisements
Track Severe Weather on mobile